createdAt,value
2023-01-19T00:02:04.238Z,27.42
2023-01-19T00:05:06.136Z,27.98
2023-01-19T00:08:14.751Z,25.38
2023-01-19T00:11:19.377Z,30.70
2023-01-19T00:14:21.080Z,27.20
2023-01-19T00:17:22.672Z,26.83
2023-01-19T00:20:24.096Z,28.27
2023-01-19T00:23:25.935Z,24.13
2023-01-19T00:26:27.438Z,29.05
2023-01-19T00:29:33.368Z,29.70
2023-01-19T00:32:34.971Z,27.83
2023-01-19T00:35:36.773Z,28.77
2023-01-19T00:38:38.976Z,27.45
2023-01-19T00:41:59.097Z,29.80
2023-01-19T00:45:00.589Z,26.63
2023-01-19T00:48:02.359Z,28.70
2023-01-19T00:51:03.946Z,29.48
2023-01-19T00:54:05.433Z,28.43
2023-01-19T00:57:07.017Z,32.40
2023-01-19T01:00:11.946Z,29.13
2023-01-19T01:03:13.399Z,34.40
2023-01-19T01:06:14.920Z,33.33
2023-01-19T01:09:16.388Z,29.90
2023-01-19T01:12:17.919Z,31.17
2023-01-19T01:15:19.788Z,32.70
2023-01-19T01:18:21.925Z,34.45
2023-01-19T01:21:23.793Z,30.48
2023-01-19T01:24:25.241Z,29.73
2023-01-19T01:27:26.651Z,30.10
2023-01-19T01:30:28.105Z,31.77
2023-01-19T01:33:40.737Z,30.87
2023-01-19T01:36:43.566Z,28.35
2023-01-19T01:39:45.018Z,27.70
2023-01-19T01:42:46.689Z,31.03
2023-01-19T01:45:48.398Z,30.92
2023-01-19T01:48:53.914Z,32.92
2023-01-19T01:51:55.409Z,30.13
2023-01-19T01:54:58.122Z,30.73
2023-01-19T01:58:03.746Z,33.83
2023-01-19T02:01:25.432Z,28.25
2023-01-19T02:04:31.819Z,32.58
2023-01-19T02:08:04.318Z,29.48
2023-01-19T02:11:25.139Z,29.63
2023-01-19T02:14:26.598Z,29.27
2023-01-19T02:17:28.315Z,30.57
2023-01-19T02:20:33.513Z,29.52
2023-01-19T02:23:40.550Z,28.98
2023-01-19T02:26:46.862Z,30.58
2023-01-19T02:29:48.519Z,30.80
2023-01-19T02:32:50.210Z,29.50
2023-01-19T02:35:54.573Z,31.60
2023-01-19T02:38:57.855Z,33.08
2023-01-19T02:42:04.374Z,29.00
2023-01-19T02:45:09.500Z,31.42
2023-01-19T02:48:11.332Z,33.60
2023-01-19T02:51:21.076Z,30.45
2023-01-19T02:54:49.176Z,29.00
2023-01-19T02:58:10.334Z,32.85
2023-01-19T03:01:56.103Z,31.83
2023-01-19T03:05:14.150Z,30.25
2023-01-19T03:08:39.867Z,30.45
2023-01-19T03:11:46.839Z,29.10
2023-01-19T03:14:48.944Z,27.27
2023-01-19T03:17:52.179Z,29.23
2023-01-19T03:20:57.851Z,28.33
2023-01-19T03:24:03.137Z,26.38
2023-01-19T03:27:10.993Z,31.10
2023-01-19T03:30:24.135Z,27.40
2023-01-19T03:33:30.703Z,27.67
2023-01-19T03:36:37.011Z,29.85
2023-01-19T03:39:38.515Z,31.98
2023-01-19T03:42:41.088Z,30.40
2023-01-19T03:45:43.209Z,29.13
2023-01-19T03:48:46.062Z,29.55
2023-01-19T03:51:47.675Z,25.90
2023-01-19T03:54:49.217Z,31.42
2023-01-19T03:57:50.649Z,26.33
2023-01-19T04:00:52.508Z,28.42
2023-01-19T04:03:54.278Z,28.60
2023-01-19T04:06:55.748Z,29.67
2023-01-19T04:09:57.210Z,27.80
2023-01-19T04:13:00.683Z,30.92
2023-01-19T04:16:04.016Z,30.38
2023-01-19T04:19:05.463Z,29.50
2023-01-19T04:22:06.929Z,27.83
2023-01-19T04:25:09.672Z,28.60
2023-01-19T04:28:11.721Z,32.17
2023-01-19T04:31:13.295Z,27.77
2023-01-19T04:34:14.804Z,26.10
2023-01-19T04:37:16.227Z,28.40
2023-01-19T04:40:17.809Z,27.57
2023-01-19T04:43:20.536Z,27.25
2023-01-19T04:46:22.002Z,24.40
2023-01-19T04:49:23.921Z,25.73
2023-01-19T04:52:25.586Z,27.27
2023-01-19T04:55:27.175Z,27.48
2023-01-19T04:58:28.629Z,29.30
2023-01-19T05:01:30.238Z,30.40
2023-01-19T05:04:32.009Z,28.73
2023-01-19T05:07:33.526Z,30.00
2023-01-19T05:10:36.524Z,29.70
2023-01-19T05:13:38.018Z,25.88
2023-01-19T05:16:39.518Z,29.17
2023-01-19T05:19:40.959Z,28.17
2023-01-19T05:22:42.522Z,25.23
2023-01-19T05:25:44.537Z,28.67
2023-01-19T05:28:46.043Z,27.60
2023-01-19T05:31:47.589Z,28.17
2023-01-19T05:34:49.079Z,26.70
2023-01-19T05:37:50.832Z,24.80
2023-01-19T05:40:58.063Z,26.95
2023-01-19T05:43:59.544Z,25.50
2023-01-19T05:47:01.072Z,25.90
2023-01-19T05:50:02.654Z,25.83
2023-01-19T05:53:04.433Z,24.00
2023-01-19T05:56:11.372Z,31.70
2023-01-19T05:59:12.860Z,28.52
2023-01-19T06:02:14.529Z,26.27
2023-01-19T06:05:16.945Z,26.08
2023-01-19T06:11:20.943Z,29.40
2023-01-19T06:17:24.160Z,27.55
2023-01-19T06:20:25.656Z,28.05
2023-01-19T06:23:32.426Z,24.57
2023-01-19T06:26:34.020Z,24.67
2023-01-19T06:29:35.549Z,28.10
2023-01-19T06:32:37.284Z,27.13
2023-01-19T06:35:38.736Z,22.05
2023-01-19T06:38:40.311Z,24.47
2023-01-19T06:41:41.963Z,22.70
2023-01-19T06:44:47.401Z,21.23
2023-01-19T06:47:48.942Z,26.20
2023-01-19T06:50:50.538Z,23.57
2023-01-19T06:53:51.979Z,25.77
2023-01-19T06:56:53.395Z,25.58
2023-01-19T06:59:54.865Z,27.10
2023-01-19T07:02:56.578Z,23.93
2023-01-19T07:06:00.215Z,25.67
2023-01-19T07:09:07.016Z,25.80
2023-01-19T07:12:09.300Z,22.23
2023-01-19T07:18:13.201Z,23.20
2023-01-19T07:21:15.349Z,25.10
2023-01-19T07:24:16.848Z,24.27
2023-01-19T07:27:18.346Z,30.07
2023-01-19T07:30:19.874Z,25.50
2023-01-19T07:33:28.692Z,24.97
2023-01-19T07:36:30.335Z,24.17
2023-01-19T07:39:32.244Z,29.50
2023-01-19T07:42:33.730Z,24.17
2023-01-19T07:45:36.088Z,28.67
2023-01-19T07:51:39.130Z,26.15
2023-01-19T07:54:40.599Z,24.23
2023-01-19T07:57:42.129Z,25.47
2023-01-19T08:00:43.647Z,31.13
2023-01-19T08:03:47.163Z,24.03
2023-01-19T08:06:48.727Z,27.90
2023-01-19T08:09:50.188Z,27.25
2023-01-19T08:12:55.479Z,30.83
2023-01-19T08:15:57.002Z,22.63
2023-01-19T08:18:58.514Z,26.83
2023-01-19T08:22:00.216Z,24.40
2023-01-19T08:25:01.740Z,23.45
2023-01-19T08:28:05.569Z,24.03
2023-01-19T08:31:19.177Z,29.90
2023-01-19T08:34:21.761Z,24.65
2023-01-19T08:37:24.750Z,30.27
2023-01-19T08:40:26.644Z,26.38
2023-01-19T08:43:28.118Z,22.33
2023-01-19T08:46:29.678Z,26.47
2023-01-19T08:49:31.362Z,23.10
2023-01-19T08:52:32.789Z,25.33
2023-01-19T08:55:37.546Z,28.50
2023-01-19T08:58:43.872Z,26.38
2023-01-19T09:01:45.553Z,24.67
2023-01-19T09:04:47.091Z,23.73
2023-01-19T09:07:48.557Z,26.27
2023-01-19T09:10:51.547Z,53.33
2023-01-19T09:13:53.068Z,29.77
2023-01-19T09:16:56.165Z,24.30
2023-01-19T09:19:58.408Z,25.17
2023-01-19T09:23:00.365Z,22.25
2023-01-19T09:26:03.619Z,24.98
2023-01-19T09:29:05.077Z,26.02
2023-01-19T09:32:06.575Z,29.37
2023-01-19T09:35:08.419Z,26.50
2023-01-19T09:38:11.011Z,21.58
2023-01-19T09:41:21.345Z,24.90
2023-01-19T09:44:31.809Z,24.58
2023-01-19T09:47:36.746Z,22.45
2023-01-19T09:50:46.586Z,27.10
2023-01-19T09:54:05.118Z,27.85
2023-01-19T09:57:11.548Z,30.40
2023-01-19T10:00:24.285Z,30.38
2023-01-19T10:03:25.746Z,21.65
2023-01-19T10:06:27.831Z,21.03
2023-01-19T10:09:53.408Z,23.80
2023-01-19T10:13:34.390Z,22.25
2023-01-19T10:17:00.878Z,26.60
2023-01-19T10:20:04.780Z,23.80
2023-01-19T10:23:38.454Z,22.27
2023-01-19T10:26:52.755Z,29.30
2023-01-19T10:29:54.640Z,23.10
2023-01-19T10:32:56.156Z,23.42
2023-01-19T10:35:57.639Z,18.73
2023-01-19T10:38:59.193Z,26.63
2023-01-19T10:42:03.504Z,23.00
2023-01-19T10:45:29.284Z,22.13
2023-01-19T10:48:38.805Z,16.80
2023-01-19T10:51:48.940Z,19.95
2023-01-19T10:54:50.906Z,22.67
2023-01-19T10:57:53.597Z,20.52
2023-01-19T11:00:55.580Z,19.77
2023-01-19T11:04:05.436Z,23.42
2023-01-19T11:07:23.656Z,22.30
2023-01-19T11:10:26.489Z,20.60
2023-01-19T11:13:28.353Z,21.42
2023-01-19T11:16:34.720Z,22.23
2023-01-19T11:19:36.336Z,21.85
2023-01-19T11:22:37.909Z,19.07
2023-01-19T11:25:39.457Z,20.38
2023-01-19T11:28:45.713Z,22.47
2023-01-19T11:31:47.686Z,22.90
2023-01-19T11:34:49.955Z,26.08
2023-01-19T11:38:13.212Z,19.85
2023-01-19T11:41:23.746Z,19.90
2023-01-19T11:44:39.105Z,20.98
2023-01-19T11:47:52.579Z,18.55
2023-01-19T11:50:55.411Z,20.33
2023-01-19T11:53:56.971Z,17.33
2023-01-19T11:57:00.172Z,21.10
2023-01-19T12:00:17.597Z,19.95
2023-01-19T12:03:21.968Z,22.38
2023-01-19T12:06:29.551Z,20.90
2023-01-19T12:09:34.377Z,19.00
2023-01-19T12:12:39.969Z,19.83
2023-01-19T12:15:47.355Z,22.13
2023-01-19T12:19:07.420Z,22.48
2023-01-19T12:22:15.776Z,18.95
2023-01-19T12:25:24.879Z,23.65
2023-01-19T12:28:31.679Z,24.45
2023-01-19T12:31:33.719Z,19.30
2023-01-19T12:34:47.644Z,22.63
2023-01-19T12:37:49.103Z,18.52
2023-01-19T12:40:50.595Z,22.60
2023-01-19T12:44:16.560Z,20.23
2023-01-19T12:47:20.968Z,21.27
2023-01-19T12:50:25.876Z,22.05
2023-01-19T12:53:27.601Z,18.25
2023-01-19T12:56:31.141Z,23.13
2023-01-19T12:59:36.733Z,17.45
2023-01-19T13:02:47.453Z,19.20
2023-01-19T13:05:55.089Z,18.40
2023-01-19T13:09:00.040Z,18.33
2023-01-19T13:12:19.632Z,19.27
2023-01-19T13:15:36.574Z,19.95
2023-01-19T13:18:41.624Z,19.08
2023-01-19T13:21:48.455Z,19.92
2023-01-19T13:25:13.083Z,18.85
2023-01-19T13:28:17.817Z,21.92
2023-01-19T13:31:20.353Z,20.88
2023-01-19T13:34:27.787Z,23.08
2023-01-19T13:37:38.913Z,18.77
2023-01-19T13:40:40.775Z,19.75
2023-01-19T13:43:43.131Z,18.30
2023-01-19T13:46:46.133Z,22.20
2023-01-19T13:49:50.965Z,21.42
2023-01-19T13:52:55.412Z,19.55
2023-01-19T13:56:17.449Z,17.35
2023-01-19T13:59:18.876Z,20.23
2023-01-19T14:02:21.198Z,17.77
2023-01-19T14:08:32.808Z,19.48
2023-01-19T14:11:34.679Z,21.20
2023-01-19T14:14:36.266Z,18.48
2023-01-19T14:17:37.740Z,16.85
2023-01-19T14:20:39.533Z,16.50
2023-01-19T14:24:05.929Z,18.73
2023-01-19T14:27:18.153Z,18.30
2023-01-19T14:30:25.115Z,19.15
2023-01-19T14:33:43.609Z,19.08
2023-01-19T14:36:45.111Z,19.33
2023-01-19T14:40:12.865Z,16.30
2023-01-19T14:43:14.356Z,16.75
2023-01-19T14:46:20.625Z,16.03
2023-01-19T14:49:46.782Z,17.40
2023-01-19T14:53:01.900Z,22.10
2023-01-19T14:56:05.603Z,19.77
2023-01-19T14:59:10.843Z,17.38
2023-01-19T15:02:12.993Z,16.67
2023-01-19T15:05:14.670Z,14.68
2023-01-19T15:08:29.947Z,18.70
2023-01-19T15:11:33.767Z,19.40
2023-01-19T15:14:35.323Z,17.77
2023-01-19T15:17:37.063Z,22.13
2023-01-19T15:20:38.514Z,21.92
2023-01-19T15:23:40.209Z,20.27
2023-01-19T15:26:42.974Z,29.83
2023-01-19T15:29:45.106Z,24.63
2023-01-19T15:32:46.874Z,23.58
2023-01-19T15:35:49.162Z,30.80
2023-01-19T15:38:51.157Z,34.72
2023-01-19T15:41:52.897Z,44.47
2023-01-19T15:44:54.446Z,42.78
2023-01-19T15:47:55.970Z,31.50
2023-01-19T15:50:57.815Z,51.47
2023-01-19T15:53:59.424Z,46.47
2023-01-19T15:57:00.911Z,35.03
2023-01-19T16:00:04.707Z,29.73
2023-01-19T16:03:11.563Z,24.20
2023-01-19T16:06:14.040Z,22.27
2023-01-19T16:09:18.468Z,26.88
2023-01-19T16:12:19.965Z,26.73
2023-01-19T16:15:22.618Z,24.70
2023-01-19T16:18:24.133Z,22.08
2023-01-19T16:21:25.866Z,21.90
2023-01-19T16:24:27.356Z,18.30
2023-01-19T16:27:28.949Z,24.80
2023-01-19T16:30:30.778Z,22.00
2023-01-19T16:33:32.395Z,28.17
2023-01-19T16:36:36.252Z,30.57
2023-01-19T16:39:40.724Z,29.80
2023-01-19T16:42:42.483Z,28.23
2023-01-19T16:45:56.300Z,24.92
2023-01-19T16:49:06.338Z,25.27
2023-01-19T16:52:07.998Z,26.35
2023-01-19T16:55:11.251Z,27.77
2023-01-19T16:58:12.733Z,35.78
2023-01-19T17:01:20.198Z,36.10
2023-01-19T17:04:22.378Z,35.97
2023-01-19T17:07:23.838Z,29.17
2023-01-19T17:10:25.372Z,23.40
2023-01-19T17:13:26.821Z,22.50
2023-01-19T17:16:31.091Z,24.10
2023-01-19T17:19:32.679Z,25.75
2023-01-19T17:22:34.085Z,24.93
2023-01-19T17:25:36.785Z,24.02
2023-01-19T17:28:38.593Z,21.98
2023-01-19T17:31:40.546Z,24.08
2023-01-19T17:34:42.091Z,22.42
2023-01-19T17:37:43.623Z,27.27
2023-01-19T17:40:45.203Z,26.23
2023-01-19T17:43:47.279Z,25.93
2023-01-19T17:46:48.931Z,25.80
2023-01-19T17:49:50.395Z,26.60
2023-01-19T17:52:52.705Z,26.17
2023-01-19T17:55:54.418Z,25.13
2023-01-19T17:58:57.235Z,22.42
2023-01-19T18:01:59.006Z,24.55
2023-01-19T18:05:02.455Z,22.60
2023-01-19T18:08:04.547Z,21.05
2023-01-19T18:14:09.414Z,25.33
2023-01-19T18:17:11.480Z,22.55
2023-01-19T18:20:13.772Z,24.40
2023-01-19T18:23:15.786Z,23.17
2023-01-19T18:26:21.049Z,24.40
2023-01-19T18:29:23.170Z,25.67
2023-01-19T18:32:27.110Z,25.10
2023-01-19T18:35:29.166Z,25.80
2023-01-19T18:38:31.264Z,23.58
2023-01-19T18:41:34.046Z,23.70
2023-01-19T18:44:35.625Z,23.00
2023-01-19T18:47:37.268Z,29.25
2023-01-19T18:50:38.790Z,24.73
2023-01-19T18:53:40.681Z,22.43
2023-01-19T18:56:42.151Z,27.60
2023-01-19T18:59:43.978Z,25.33
2023-01-19T19:02:45.418Z,24.02
2023-01-19T19:05:47.459Z,20.40
2023-01-19T19:08:50.834Z,24.08
2023-01-19T19:11:52.435Z,23.65
2023-01-19T19:14:53.864Z,20.40
2023-01-19T19:17:55.326Z,23.63
2023-01-19T19:20:56.783Z,27.90
2023-01-19T19:23:58.318Z,28.50
2023-01-19T19:27:14.799Z,23.45
2023-01-19T19:30:16.573Z,20.67
2023-01-19T19:33:18.035Z,21.00
2023-01-19T19:36:21.233Z,23.85
2023-01-19T19:39:22.753Z,24.10
2023-01-19T19:42:24.789Z,25.10
2023-01-19T19:45:26.874Z,22.52
2023-01-19T19:48:28.711Z,27.38
2023-01-19T19:51:30.164Z,24.98
2023-01-19T19:54:31.637Z,20.63
2023-01-19T19:57:33.219Z,25.57
2023-01-19T20:00:34.757Z,19.93
2023-01-19T20:03:36.444Z,19.95
2023-01-19T20:06:44.630Z,21.48
2023-01-19T20:09:46.401Z,23.30
2023-01-19T20:12:47.876Z,23.30
2023-01-19T20:15:49.405Z,23.55
2023-01-19T20:18:53.907Z,26.50
2023-01-19T20:21:55.575Z,24.90
2023-01-19T20:24:57.223Z,23.50
2023-01-19T20:27:59.381Z,27.25
2023-01-19T20:31:11.833Z,28.45
2023-01-19T20:34:16.151Z,27.45
2023-01-19T20:37:17.856Z,25.13
2023-01-19T20:40:19.615Z,27.70
2023-01-19T20:43:21.168Z,31.92
2023-01-19T20:46:22.630Z,25.38
2023-01-19T20:49:24.506Z,27.53
2023-01-19T20:52:26.073Z,26.63
2023-01-19T20:55:27.909Z,37.53
2023-01-19T20:58:31.230Z,35.55
2023-01-19T21:01:32.760Z,47.03
2023-01-19T21:04:34.280Z,36.57
2023-01-19T21:07:35.800Z,35.42
2023-01-19T21:10:37.371Z,34.60
2023-01-19T21:13:38.959Z,32.50
2023-01-19T21:16:42.509Z,29.25
2023-01-19T21:19:44.037Z,31.65
2023-01-19T21:22:45.580Z,29.20
2023-01-19T21:25:51.024Z,28.03
2023-01-19T21:28:52.481Z,24.08
2023-01-19T21:31:54.191Z,26.37
2023-01-19T21:34:55.734Z,25.58
2023-01-19T21:37:58.139Z,27.33
2023-01-19T21:44:06.066Z,26.65
2023-01-19T21:47:09.708Z,25.15
2023-01-19T21:50:11.346Z,23.63
2023-01-19T21:53:12.894Z,24.52
2023-01-19T21:56:16.710Z,23.57
2023-01-19T21:59:20.330Z,24.73
2023-01-19T22:02:37.645Z,24.40
2023-01-19T22:05:39.876Z,26.05
2023-01-19T22:08:41.819Z,29.23
2023-01-19T22:11:43.302Z,38.33
2023-01-19T22:14:44.871Z,30.33
2023-01-19T22:17:46.348Z,22.53
2023-01-19T22:20:47.745Z,22.97
2023-01-19T22:23:50.684Z,23.10
2023-01-19T22:26:52.179Z,24.88
2023-01-19T22:29:53.956Z,25.50
2023-01-19T22:32:55.557Z,31.80
2023-01-19T22:36:09.870Z,26.77
2023-01-19T22:39:12.933Z,26.17
2023-01-19T22:42:14.399Z,26.17
2023-01-19T22:45:16.128Z,30.13
2023-01-19T22:48:17.570Z,30.00
2023-01-19T22:51:20.626Z,25.53
2023-01-19T22:54:23.133Z,26.88
2023-01-19T22:57:24.812Z,25.50
2023-01-19T23:00:26.551Z,24.27
2023-01-19T23:03:29.067Z,28.48
2023-01-19T23:09:34.219Z,26.55
2023-01-19T23:12:35.690Z,29.48
2023-01-19T23:15:37.216Z,28.80
2023-01-19T23:18:39.483Z,32.50
2023-01-19T23:21:41.003Z,29.65
2023-01-19T23:24:42.490Z,32.63
2023-01-19T23:27:43.980Z,32.17
2023-01-19T23:30:45.603Z,27.83
2023-01-19T23:33:47.119Z,28.02
2023-01-19T23:36:48.785Z,27.58
2023-01-19T23:39:50.209Z,27.02
2023-01-19T23:42:51.760Z,24.05
2023-01-19T23:45:53.247Z,28.40
2023-01-19T23:48:55.216Z,24.40
2023-01-19T23:51:59.165Z,24.90
2023-01-19T23:55:00.632Z,24.13
2023-01-19T23:58:02.173Z,24.63
